Airfield :
LOGIN :

Register | Disclaimer

   EN    FR    IT 

 










Legend :    VFR   Marginal VFR   IFR   Intensive IFR   Very Intensive IFR
Visi :
Ceiling :
>= 8 km
>= 3000ft
5 to 8 km
1000 to 3000 ft
1500m to 5 km
500 to 1000 ft
800 to 1500m
200 to 500 ft
< 800m
< 200 ft
Symbols :   Thunderstorms  Fog  Heavy snow  Heavy precipitations  Wind > 20 kt
SIGMETs :     Misc.  Thunderstorms  Icing  Turbulence  Mountain Waves  Volcanic Ashes







- Airport Elevation : 348 ft
- IATA code : STN
- Download approach charts


EGSS - London Stansted

CURRENT METAR :
  • 161550Z AUTO 34006KT 310V020 9999 BKN011 16/13 Q1022

EXPIRED METARs :
  • 161520Z AUTO 02005KT 330V040 9999 BKN010 OVC036 16/14 Q1022
  • 161450Z AUTO 01006KT 9999 BKN007 OVC019 16/14 Q1022
  • 161420Z AUTO 35006KT 9999 SCT006 BKN009 BKN013 16/14 Q1022
  • 161350Z AUTO 35007KT 6000 BKN006 OVC018 16/14 Q1022
  • 161320Z AUTO 35006KT 300V030 9999 BKN006 OVC011 16/15 Q1022

TAF TAF EGSS
Valid from the 16 at 12:00 until the 17 at 18:00 UTC


161100Z 1612/1718 36007KT 9999 BKN014
TEMPO 1612/1618 4000 -RADZ BR OVC005
PROB40
TEMPO 1612/1617 DZ BKN002
BECMG 1618/1621 FEW020
TEMPO 1622/1706 6000
PROB30 1700/1705 3000 BR
ATIS : +44 1279 669 325
No reported NOTAMs for that airfield.



MET'MAP, your aeronautical weather chart ! - Copyright ORBIFLY December 2007 - Disclaimer

ORBIFLY MET'MAP TEAM :

Programming & Development : Alexandra Zaïnal
Concept & Development : Baudouin d'Aumeries
Co-Development & Prog : Marc-Olivier Méhu
Technical & hardware support : Manuel Goepfert

Contact : metmap@orbifly.com




SOURCES & CREDITS :

   NOAA